Time;durP1;ratioP1;P1;durP2;ratioP2;P2;SDS_P1;SDS_P2;PMS_P1;PMS_P2;Temp;Humidity;BMP_temperature;BMP_pressure;BME280_temperature;BME280_humidity;BME280_pressure;Samples;Min_cycle;Max_cycle;Signal;HPM_P1;HPM_P2
2022/09/06 00:01:37;;;;;;;4.45;4.05;;;19.20;97.70;;;;;;4966726;28;20038;-77
2022/09/06 00:04:02;;;;;;;4.15;3.75;;;19.20;97.60;;;;;;4975295;28;20053;-77
2022/09/06 00:06:28;;;;;;;4.30;3.90;;;19.30;97.60;;;;;;4975219;28;20497;-78
2022/09/06 00:08:53;;;;;;;4.28;3.78;;;19.30;97.90;;;;;;4977671;28;20403;-77
2022/09/06 00:11:19;;;;;;;4.45;4.10;;;19.30;98.00;;;;;;4991254;28;20080;-77
2022/09/06 00:13:46;;;;;;;4.35;3.95;;;19.20;97.80;;;;;;4976149;28;20038;-77
2022/09/06 00:16:18;;;;;;;5.38;4.13;;;19.20;97.80;;;;;;4975315;28;20043;-78
2022/09/06 00:18:44;;;;;;;4.80;4.30;;;19.30;97.80;;;;;;4973679;28;20481;-77
2022/09/06 00:21:19;;;;;;;5.03;4.55;;;19.30;97.60;;;;;;4982821;28;20078;-78
2022/09/06 00:23:45;;;;;;;4.88;4.47;;;19.40;98.00;;;;;;4970873;28;20386;-77
2022/09/06 00:26:11;;;;;;;4.65;4.25;;;19.30;98.10;;;;;;4953225;28;20066;-77
2022/09/06 00:28:37;;;;;;;4.65;4.20;;;19.30;98.20;;;;;;4975038;28;20045;-77
2022/09/06 00:31:14;;;;;;;5.75;4.20;;;19.30;98.00;;;;;;4983458;28;20095;-77
2022/09/06 00:33:40;;;;;;;4.80;4.13;;;19.20;98.00;;;;;;4976581;28;20042;-77
2022/09/06 00:36:07;;;;;;;5.13;4.63;;;19.30;97.90;;;;;;4974305;28;20088;-77
2022/09/06 00:38:32;;;;;;;5.13;4.63;;;19.30;98.20;;;;;;4991057;28;20077;-77
2022/09/06 00:40:58;;;;;;;4.72;4.32;;;19.30;98.50;;;;;;4989959;28;20451;-77
2022/09/06 00:43:24;;;;;;;4.97;4.47;;;19.20;98.80;;;;;;4978775;28;20421;-77
2022/09/06 00:45:50;;;;;;;4.55;4.15;;;19.10;98.40;;;;;;4974903;28;20066;-77
2022/09/06 00:48:16;;;;;;;5.70;5.20;;;19.10;98.40;;;;;;4974786;28;20053;-77
2022/09/06 00:50:44;;;;;;;5.10;4.68;;;19.10;98.40;;;;;;4975165;28;20038;-77
2022/09/06 00:53:10;;;;;;;5.10;4.60;;;19.10;99.50;;;;;;4986074;28;20042;-78
2022/09/06 00:55:36;;;;;;;5.30;4.80;;;19.10;99.40;;;;;;4977866;28;20044;-77
2022/09/06 00:58:02;;;;;;;5.15;4.72;;;19.00;99.00;;;;;;4983322;28;20416;-77
2022/09/06 01:00:28;;;;;;;4.80;4.40;;;19.00;99.30;;;;;;4983344;28;20050;-77
2022/09/06 01:02:53;;;;;;;4.80;4.40;;;19.00;99.70;;;;;;4993856;28;20101;-77
2022/09/06 01:05:22;;;;;;;4.70;4.30;;;19.00;99.40;;;;;;4981752;28;20068;-77
2022/09/06 01:07:54;;;;;;;5.25;4.38;;;19.00;99.90;;;;;;4998041;28;20045;-77
2022/09/06 01:10:49;;;;;;;5.97;5.40;;;18.90;99.90;;;;;;4986759;28;20042;-77
2022/09/06 01:13:24;;;;;;;5.22;4.82;;;18.80;99.90;;;;;;4973293;28;20050;-77
2022/09/06 01:15:59;;;;;;;5.65;5.15;;;18.80;99.90;;;;;;4998148;28;20403;-77
2022/09/06 01:18:44;;;;;;;5.78;5.28;;;18.70;99.90;;;;;;4981275;28;20555;-77
2022/09/06 01:21:43;;;;;;;5.50;5.00;;;18.60;99.90;;;;;;4965463;28;20035;-77
2022/09/06 01:24:46;;;;;;;6.15;5.40;;;18.50;99.90;;;;;;4980277;28;20129;-77
2022/09/06 01:27:46;;;;;;;5.17;4.77;;;18.40;99.90;;;;;;4998867;28;20451;-77
2022/09/06 01:30:15;;;;;;;5.38;4.88;;;18.40;99.90;;;;;;4972293;28;20289;-77
2022/09/06 01:33:01;;;;;;;5.78;5.28;;;18.40;99.90;;;;;;4970735;28;20041;-77
2022/09/06 01:35:43;;;;;;;6.68;6.07;;;18.30;99.90;;;;;;4997390;28;20049;-77
2022/09/06 01:38:09;;;;;;;6.63;6.03;;;18.30;99.90;;;;;;4984397;28;20046;-77
2022/09/06 01:40:35;;;;;;;6.30;5.75;;;18.20;99.90;;;;;;4985010;28;20053;-77
2022/09/06 01:43:07;;;;;;;6.97;6.38;;;18.20;99.90;;;;;;4977335;28;20037;-77
2022/09/06 01:45:35;;;;;;;7.50;6.90;;;18.20;99.90;;;;;;4994243;28;20046;-77
2022/09/06 01:48:32;;;;;;;7.00;6.30;;;18.20;99.90;;;;;;4986714;28;20034;-77
2022/09/06 01:51:23;;;;;;;6.82;6.22;;;18.10;99.90;;;;;;4963507;28;20046;-77
2022/09/06 01:54:04;;;;;;;6.97;6.28;;;18.20;99.90;;;;;;4987632;28;20401;-77
2022/09/06 01:56:51;;;;;;;5.88;5.38;;;18.20;99.90;;;;;;4997113;28;20500;-77
2022/09/06 01:59:35;;;;;;;6.20;5.60;;;18.30;99.90;;;;;;4954302;28;20073;-77
2022/09/06 02:02:19;;;;;;;6.57;5.95;;;18.30;99.90;;;;;;4968007;28;20544;-77
2022/09/06 02:04:54;;;;;;;6.82;6.20;;;18.40;99.90;;;;;;4980580;28;20038;-77
2022/09/06 02:07:29;;;;;;;7.03;6.43;;;18.50;99.90;;;;;;4978093;28;20056;-77
2022/09/06 02:10:02;;;;;;;6.55;5.95;;;18.50;99.90;;;;;;4969488;28;20074;-77
2022/09/06 02:12:30;;;;;;;6.80;6.20;;;18.50;99.90;;;;;;4976353;28;20049;-77
2022/09/06 02:15:05;;;;;;;6.18;5.57;;;18.50;99.90;;;;;;4964129;28;20281;-77
2022/09/06 02:17:37;;;;;;;7.40;6.80;;;18.50;99.90;;;;;;4975837;28;20043;-78
2022/09/06 02:20:13;;;;;;;8.13;7.43;;;18.40;99.90;;;;;;4971173;28;20062;-77
2022/09/06 02:22:43;;;;;;;8.13;7.40;;;18.40;99.90;;;;;;4973807;28;20688;-77
2022/09/06 02:25:12;;;;;;;8.27;7.57;;;18.30;99.90;;;;;;4996494;28;20125;-77
2022/09/06 02:27:38;;;;;;;8.20;7.60;;;18.20;99.90;;;;;;4989697;28;20039;-77
2022/09/06 02:30:05;;;;;;;8.25;7.55;;;18.20;99.90;;;;;;4970268;28;20034;-77
2022/09/06 02:32:38;;;;;;;7.75;7.15;;;18.20;99.90;;;;;;4976212;28;20041;-77
2022/09/06 02:35:14;;;;;;;7.65;7.03;;;18.10;99.90;;;;;;4996339;28;20034;-77
2022/09/06 02:37:41;;;;;;;7.55;6.88;;;18.10;99.90;;;;;;4989926;28;20065;-77
2022/09/06 02:40:07;;;;;;;7.95;7.32;;;18.00;99.90;;;;;;4948634;28;20031;-77
2022/09/06 02:42:33;;;;;;;7.40;6.72;;;18.00;99.90;;;;;;4974134;28;20074;-77
2022/09/06 02:44:59;;;;;;;7.68;6.97;;;18.10;99.90;;;;;;4988074;28;20069;-77
2022/09/06 02:47:25;;;;;;;7.85;7.25;;;18.00;99.90;;;;;;4988822;28;20033;-77
2022/09/06 02:49:50;;;;;;;7.82;7.13;;;18.10;99.90;;;;;;4992572;28;20485;-77
2022/09/06 02:52:16;;;;;;;7.13;6.53;;;17.90;99.90;;;;;;4960433;28;20045;-77
2022/09/06 02:54:42;;;;;;;8.15;7.35;;;17.90;99.90;;;;;;4976525;28;20046;-77
2022/09/06 02:57:07;;;;;;;7.90;7.28;;;17.90;99.90;;;;;;4976609;28;20050;-77
2022/09/06 02:59:33;;;;;;;7.75;7.15;;;17.90;99.90;;;;;;4951932;28;20097;-77
2022/09/06 03:01:58;;;;;;;7.80;7.10;;;17.80;99.90;;;;;;4963582;28;20041;-77
2022/09/06 03:04:24;;;;;;;8.15;7.40;;;17.70;99.90;;;;;;4993620;28;20069;-77
2022/09/06 03:06:50;;;;;;;7.38;6.72;;;17.70;99.90;;;;;;4995697;28;20042;-77
2022/09/06 03:09:15;;;;;;;7.97;7.35;;;17.70;99.90;;;;;;4955141;28;20510;-77
2022/09/06 03:11:41;;;;;;;8.30;7.47;;;17.70;99.90;;;;;;4960089;28;20394;-77
2022/09/06 03:14:07;;;;;;;8.90;8.20;;;17.70;99.90;;;;;;4974141;28;20116;-77
2022/09/06 03:16:33;;;;;;;8.60;7.90;;;17.70;99.90;;;;;;4992590;28;20046;-77
2022/09/06 03:18:59;;;;;;;8.18;7.38;;;17.70;99.90;;;;;;4957483;28;20039;-77
2022/09/06 03:21:25;;;;;;;8.95;8.15;;;17.60;99.90;;;;;;4975846;28;20047;-77
2022/09/06 03:23:51;;;;;;;8.35;7.65;;;17.50;99.90;;;;;;4976636;28;20397;-77
2022/09/06 03:26:17;;;;;;;8.30;7.60;;;17.60;99.90;;;;;;4989515;28;20034;-77
2022/09/06 03:28:42;;;;;;;8.13;7.53;;;17.60;99.90;;;;;;4965544;28;20042;-77
2022/09/06 03:31:08;;;;;;;9.32;8.52;;;17.50;99.90;;;;;;4953670;28;20046;-77
2022/09/06 03:33:33;;;;;;;9.02;8.32;;;17.50;99.90;;;;;;4959599;28;20046;-77
2022/09/06 03:36:00;;;;;;;8.40;7.70;;;17.60;99.90;;;;;;4987302;28;20128;-77
2022/09/06 03:38:27;;;;;;;8.75;7.85;;;17.50;99.90;;;;;;4985712;28;20156;-77
2022/09/06 03:40:53;;;;;;;9.63;8.82;;;17.50;99.90;;;;;;4950098;28;20034;-77
2022/09/06 03:43:20;;;;;;;9.95;9.13;;;17.50;99.90;;;;;;4982297;28;20045;-77
2022/09/06 03:45:48;;;;;;;9.30;8.60;;;17.40;99.90;;;;;;4987490;28;20056;-77
2022/09/06 03:48:15;;;;;;;10.13;9.32;;;17.40;99.90;;;;;;4987466;28;20409;-77
2022/09/06 03:50:45;;;;;;;10.40;9.48;;;17.50;99.90;;;;;;4967368;28;20049;-77
2022/09/06 03:53:11;;;;;;;9.75;8.80;;;17.50;99.90;;;;;;4965798;28;20117;-77
2022/09/06 03:55:37;;;;;;;10.45;9.60;;;17.40;99.90;;;;;;4960104;28;20557;-77
2022/09/06 03:58:02;;;;;;;10.85;9.95;;;17.50;99.90;;;;;;4972906;28;20030;-77
2022/09/06 04:00:28;;;;;;;11.00;9.98;;;17.50;99.90;;;;;;4967534;28;20422;-77
2022/09/06 04:02:54;;;;;;;11.05;10.15;;;17.40;99.90;;;;;;4940060;28;20039;-77
2022/09/06 04:05:19;;;;;;;10.13;9.32;;;17.40;99.90;;;;;;4955937;28;20560;-77
2022/09/06 04:07:45;;;;;;;10.88;9.77;;;17.30;99.90;;;;;;4957331;28;20038;-77
2022/09/06 04:10:10;;;;;;;10.60;9.68;;;17.40;99.90;;;;;;4987900;28;20095;-77
2022/09/06 04:12:36;;;;;;;10.75;9.85;;;17.40;99.90;;;;;;4977371;28;20052;-77
2022/09/06 04:15:02;;;;;;;10.57;9.65;;;17.30;99.90;;;;;;4975147;28;20497;-77
2022/09/06 04:17:27;;;;;;;10.98;10.07;;;17.30;99.90;;;;;;4958833;28;20576;-77
2022/09/06 04:19:53;;;;;;;11.25;10.35;;;17.20;99.90;;;;;;4949980;28;20030;-77
2022/09/06 04:22:18;;;;;;;10.57;9.77;;;17.20;99.90;;;;;;4974727;28;20122;-77
2022/09/06 04:24:44;;;;;;;10.57;9.68;;;17.30;99.90;;;;;;4984530;28;20042;-77
2022/09/06 04:27:10;;;;;;;11.70;10.65;;;17.30;99.90;;;;;;4994201;28;20504;-77
2022/09/06 04:29:35;;;;;;;10.35;9.45;;;17.20;99.90;;;;;;4952941;28;20039;-77
2022/09/06 04:32:01;;;;;;;10.60;9.70;;;17.20;99.90;;;;;;4974866;28;20393;-76
2022/09/06 04:34:26;;;;;;;10.30;9.40;;;17.10;99.90;;;;;;4973615;28;20048;-76
2022/09/06 04:36:52;;;;;;;11.10;10.13;;;17.10;99.90;;;;;;4993948;28;20069;-76
2022/09/06 04:39:17;;;;;;;10.80;9.90;;;17.10;99.90;;;;;;4956172;28;20559;-76
2022/09/06 04:41:43;;;;;;;10.35;9.55;;;17.00;99.90;;;;;;4964802;28;20150;-76
2022/09/06 04:44:09;;;;;;;12.18;11.15;;;17.00;99.90;;;;;;4958008;28;20050;-76
2022/09/06 04:46:34;;;;;;;12.13;11.05;;;17.00;99.90;;;;;;4991564;28;20531;-76
2022/09/06 04:49:00;;;;;;;11.52;10.63;;;16.90;99.90;;;;;;4977492;28;20093;-76
2022/09/06 04:51:26;;;;;;;12.15;11.07;;;16.90;99.90;;;;;;4954344;28;20489;-76
2022/09/06 04:53:52;;;;;;;12.75;11.65;;;16.90;99.90;;;;;;4993681;28;20042;-76
2022/09/06 04:56:23;;;;;;;12.48;11.38;;;16.70;99.90;;;;;;4982702;28;20046;-76
2022/09/06 04:58:49;;;;;;;12.40;11.40;;;16.70;99.90;;;;;;4966867;28;20120;-76
2022/09/06 05:01:15;;;;;;;12.20;11.20;;;16.70;99.90;;;;;;4974832;28;20619;-77
2022/09/06 05:03:41;;;;;;;11.95;10.95;;;16.60;99.90;;;;;;4983456;28;20132;-76
2022/09/06 05:06:19;;;;;;;12.77;11.68;;;16.60;99.90;;;;;;4983650;28;20389;-76
2022/09/06 05:08:45;;;;;;;12.80;11.80;;;16.60;99.90;;;;;;4987867;28;20050;-76
2022/09/06 05:11:11;;;;;;;12.85;11.85;;;16.60;99.90;;;;;;4958466;28;20041;-76
2022/09/06 05:13:38;;;;;;;13.57;12.48;;;16.60;99.90;;;;;;4974429;28;20047;-76
2022/09/06 05:16:05;;;;;;;14.02;12.82;;;16.50;99.90;;;;;;4974662;28;20406;-76
2022/09/06 05:18:32;;;;;;;13.25;12.15;;;16.50;99.90;;;;;;4985740;28;20041;-76
2022/09/06 05:20:57;;;;;;;13.23;12.13;;;16.50;99.90;;;;;;4994202;28;20222;-76
2022/09/06 05:23:24;;;;;;;13.57;12.48;;;16.60;99.90;;;;;;4982414;28;20396;-76
2022/09/06 05:25:50;;;;;;;13.07;11.98;;;16.50;99.90;;;;;;4954976;28;20488;-76
2022/09/06 05:28:16;;;;;;;13.65;12.48;;;16.60;99.90;;;;;;4980404;28;20062;-76
2022/09/06 05:30:42;;;;;;;12.75;11.75;;;16.60;99.90;;;;;;4971994;28;20061;-76
2022/09/06 05:33:12;;;;;;;12.77;11.63;;;16.70;99.90;;;;;;4993841;28;20377;-76
2022/09/06 05:35:38;;;;;;;12.20;11.20;;;16.70;99.90;;;;;;4973535;28;20042;-76
2022/09/06 05:38:04;;;;;;;12.52;11.43;;;16.70;99.90;;;;;;4968260;28;20041;-77
2022/09/06 05:40:30;;;;;;;12.13;11.13;;;16.70;99.90;;;;;;4993731;28;20066;-76
2022/09/06 05:42:56;;;;;;;12.13;10.93;;;16.80;99.90;;;;;;4993967;28;20045;-76
2022/09/06 05:45:21;;;;;;;12.75;11.65;;;16.80;99.90;;;;;;4982441;28;20046;-76
2022/09/06 05:47:48;;;;;;;13.25;11.95;;;16.90;99.90;;;;;;4967782;28;20121;-76
2022/09/06 05:50:13;;;;;;;13.55;12.32;;;16.90;99.90;;;;;;4995798;28;20052;-77
2022/09/06 05:52:39;;;;;;;12.98;11.88;;;16.90;99.90;;;;;;4997172;28;20038;-77
2022/09/06 05:55:06;;;;;;;12.80;11.75;;;16.90;99.90;;;;;;4981549;28;20033;-77
2022/09/06 05:57:32;;;;;;;13.45;12.35;;;16.90;99.90;;;;;;4974424;28;20038;-76
2022/09/06 05:59:57;;;;;;;13.20;12.10;;;16.90;99.90;;;;;;4958724;28;20544;-76
2022/09/06 06:02:23;;;;;;;13.82;12.73;;;16.90;99.90;;;;;;4982878;28;20037;-77
2022/09/06 06:04:50;;;;;;;13.63;12.50;;;16.90;99.90;;;;;;4982139;28;20117;-76
2022/09/06 06:07:16;;;;;;;14.05;12.82;;;16.90;99.90;;;;;;4974446;28;20046;-78
2022/09/06 06:09:42;;;;;;;14.48;13.27;;;16.90;99.90;;;;;;4986176;28;20053;-80
2022/09/06 06:12:08;;;;;;;13.15;11.95;;;16.90;99.90;;;;;;4974319;28;20073;-78
2022/09/06 06:14:33;;;;;;;13.10;12.00;;;17.00;99.90;;;;;;4981600;28;20163;-78
2022/09/06 06:16:59;;;;;;;12.27;11.25;;;16.90;99.90;;;;;;4953655;28;20041;-78
2022/09/06 06:19:25;;;;;;;13.43;12.32;;;17.00;99.90;;;;;;4977592;28;20046;-78
2022/09/06 06:21:51;;;;;;;13.75;12.65;;;17.00;99.90;;;;;;4974834;28;20035;-78
2022/09/06 06:24:16;;;;;;;12.82;11.75;;;17.00;99.90;;;;;;4973890;28;20105;-78
2022/09/06 06:26:42;;;;;;;13.48;12.30;;;17.10;99.90;;;;;;4993075;28;20069;-78
2022/09/06 06:29:08;;;;;;;13.40;12.30;;;17.10;99.90;;;;;;4976942;28;20121;-78
2022/09/06 06:31:35;;;;;;;13.13;12.02;;;17.20;99.90;;;;;;4977152;28;20125;-78
2022/09/06 06:34:02;;;;;;;15.35;14.05;;;17.20;99.90;;;;;;4976981;28;20042;-78
2022/09/06 06:36:32;;;;;;;16.63;15.20;;;17.30;99.90;;;;;;4978236;28;20488;-77
2022/09/06 06:38:59;;;;;;;15.57;14.27;;;17.40;99.90;;;;;;4977062;28;20046;-78
2022/09/06 06:41:27;;;;;;;14.88;13.70;;;17.50;99.90;;;;;;4960681;28;20038;-78
2022/09/06 06:43:58;;;;;;;15.30;14.00;;;17.50;99.90;;;;;;4976100;28;20085;-78
2022/09/06 06:46:26;;;;;;;15.07;13.75;;;17.50;99.90;;;;;;4954937;28;20039;-78
2022/09/06 06:48:54;;;;;;;14.95;13.73;;;17.60;99.90;;;;;;4973687;28;20093;-78
2022/09/06 06:51:20;;;;;;;15.13;13.93;;;17.60;99.90;;;;;;4973727;28;20447;-78
2022/09/06 06:53:47;;;;;;;14.70;13.43;;;17.60;99.90;;;;;;4986538;28;20405;-78
2022/09/06 06:56:15;;;;;;;15.45;14.15;;;17.60;99.90;;;;;;4990408;28;20042;-77
2022/09/06 06:58:41;;;;;;;14.07;12.88;;;17.50;99.90;;;;;;4963884;28;20030;-78
2022/09/06 07:01:08;;;;;;;14.52;13.32;;;17.60;99.90;;;;;;4973655;28;20038;-78
2022/09/06 07:03:35;;;;;;;14.70;13.40;;;17.70;99.90;;;;;;4965689;28;20513;-78
2022/09/06 07:06:01;;;;;;;14.55;13.45;;;17.70;99.90;;;;;;4977940;28;20038;-77
2022/09/06 07:08:26;;;;;;;14.32;13.13;;;17.70;99.90;;;;;;4974821;28;20369;-77
2022/09/06 07:10:52;;;;;;;15.02;13.73;;;17.80;99.90;;;;;;4943948;28;20515;-77
2022/09/06 07:13:18;;;;;;;15.45;14.15;;;17.80;99.90;;;;;;4952863;28;20047;-77
2022/09/06 07:15:44;;;;;;;14.98;13.77;;;17.80;99.90;;;;;;4982410;28;20137;-78
2022/09/06 07:18:10;;;;;;;15.52;14.23;;;17.90;99.90;;;;;;4967920;28;20625;-77
2022/09/06 07:20:36;;;;;;;15.07;13.55;;;17.90;99.90;;;;;;4975965;28;20034;-77
2022/09/06 07:23:04;;;;;;;14.75;13.55;;;18.00;99.90;;;;;;4975868;28;20049;-77
2022/09/06 07:25:31;;;;;;;15.50;14.20;;;18.00;99.90;;;;;;4966452;28;20054;-77
2022/09/06 07:28:05;;;;;;;14.32;13.20;;;18.10;99.90;;;;;;4952115;28;20137;-78
2022/09/06 07:30:35;;;;;;;14.85;13.65;;;18.20;99.90;;;;;;4975850;28;20130;-77
2022/09/06 07:33:04;;;;;;;15.10;13.77;;;18.20;99.90;;;;;;4975797;28;20053;-77
2022/09/06 07:35:30;;;;;;;15.15;13.93;;;18.30;99.90;;;;;;4965959;28;20501;-77
2022/09/06 07:37:58;;;;;;;16.75;15.25;;;18.50;99.90;;;;;;4975093;28;20401;-77
2022/09/06 07:40:25;;;;;;;15.15;13.85;;;18.50;99.90;;;;;;4974390;28;20141;-77
2022/09/06 07:42:51;;;;;;;14.88;13.70;;;18.70;99.90;;;;;;4988344;28;20129;-77
2022/09/06 07:45:18;;;;;;;14.38;13.18;;;18.80;99.90;;;;;;4975304;28;20065;-79
2022/09/06 07:47:44;;;;;;;14.57;13.27;;;18.90;99.90;;;;;;4974492;28;20030;-77
2022/09/06 07:50:10;;;;;;;13.95;12.80;;;19.00;99.90;;;;;;4968697;28;20440;-77
2022/09/06 07:52:36;;;;;;;14.50;13.25;;;19.00;99.90;;;;;;4980121;28;20456;-78
2022/09/06 07:55:02;;;;;;;14.57;13.35;;;19.10;99.90;;;;;;4973412;28;20045;-77
2022/09/06 07:57:27;;;;;;;14.93;13.68;;;19.20;99.90;;;;;;4966876;28;20046;-77
2022/09/06 07:59:53;;;;;;;13.98;12.70;;;19.20;99.90;;;;;;4973657;28;20026;-77
2022/09/06 08:02:19;;;;;;;14.23;13.02;;;19.20;99.90;;;;;;4989993;28;20085;-76
2022/09/06 08:04:44;;;;;;;14.70;13.40;;;19.30;99.90;;;;;;4983436;28;20081;-77
2022/09/06 08:07:10;;;;;;;14.05;12.85;;;19.30;99.90;;;;;;4952319;28;20045;-76
2022/09/06 08:09:36;;;;;;;14.00;12.90;;;19.40;99.90;;;;;;4992015;28;20077;-77
2022/09/06 08:12:07;;;;;;;15.15;13.77;;;19.40;99.90;;;;;;4978367;28;20034;-77
2022/09/06 08:14:34;;;;;;;14.65;13.27;;;19.50;99.90;;;;;;4985032;28;20042;-77
2022/09/06 08:16:59;;;;;;;12.70;11.60;;;19.60;99.90;;;;;;4959677;28;20511;-77
2022/09/06 08:19:25;;;;;;;13.25;12.05;;;19.70;99.90;;;;;;4981791;28;20144;-77
2022/09/06 08:21:53;;;;;;;13.60;12.30;;;19.90;99.90;;;;;;4994294;28;20492;-78
2022/09/06 08:24:19;;;;;;;12.55;11.35;;;20.00;99.90;;;;;;4978795;28;20133;-77
2022/09/06 08:26:45;;;;;;;12.82;11.70;;;20.10;99.90;;;;;;4984080;28;20125;-77
2022/09/06 08:29:11;;;;;;;12.48;11.48;;;20.30;99.90;;;;;;4988359;28;20042;-77
2022/09/06 08:31:43;;;;;;;12.43;11.30;;;20.40;99.90;;;;;;4986316;28;20049;-76
2022/09/06 08:34:11;;;;;;;12.32;11.30;;;20.50;99.90;;;;;;4984058;28;20470;-76
2022/09/06 08:36:37;;;;;;;11.25;10.15;;;20.70;99.90;;;;;;4950187;28;20043;-78
2022/09/06 08:39:05;;;;;;;11.20;10.20;;;21.30;99.90;;;;;;4974860;28;20037;-79
2022/09/06 08:42:00;;;;;;;10.77;9.75;;;22.10;99.90;;;;;;4976598;28;20066;-78
2022/09/06 08:44:41;;;;;;;8.95;8.18;;;22.90;99.90;;;;;;4976829;28;20038;-78
2022/09/06 08:47:12;;;;;;;8.82;8.07;;;23.50;99.90;;;;;;4981997;28;20108;-78
2022/09/06 08:49:46;;;;;;;7.72;7.10;;;23.80;99.90;;;;;;4979468;28;20046;-77
2022/09/06 08:52:39;;;;;;;7.68;6.97;;;24.20;99.90;;;;;;4989693;28;20116;-78
2022/09/06 08:55:18;;;;;;;7.50;6.80;;;24.60;99.90;;;;;;4962084;28;20039;-78
2022/09/06 08:58:10;;;;;;;7.60;6.80;;;25.20;99.90;;;;;;4961416;28;20277;-78
2022/09/06 09:00:37;;;;;;;6.20;5.60;;;25.70;99.90;;;;;;4980774;28;20493;-78
2022/09/06 09:03:35;;;;;;;5.80;5.30;;;26.20;99.90;;;;;;4976390;28;20038;-77
2022/09/06 09:06:04;;;;;;;6.18;5.60;;;26.60;99.90;;;;;;4965092;28;20078;-78
2022/09/06 09:09:07;;;;;;;6.30;5.72;;;26.80;99.90;;;;;;4973423;28;20038;-78
2022/09/06 09:11:34;;;;;;;7.18;6.53;;;26.90;99.90;;;;;;4955972;28;20125;-79
2022/09/06 09:14:21;;;;;;;6.53;5.93;;;27.10;99.60;;;;;;4995502;28;20039;-78
2022/09/06 09:16:58;;;;;;;6.70;6.10;;;27.10;97.70;;;;;;4974558;28;20038;-77
2022/09/06 09:19:23;;;;;;;5.95;5.35;;;27.20;96.00;;;;;;4978389;28;20400;-77
2022/09/06 09:21:49;;;;;;;6.78;6.18;;;27.40;99.90;;;;;;4993604;28;20042;-77
2022/09/06 09:24:15;;;;;;;6.95;6.32;;;27.60;96.30;;;;;;4978291;28;20401;-78
2022/09/06 09:27:01;;;;;;;7.03;6.32;;;27.80;97.70;;;;;;4994997;28;20045;-78
2022/09/06 09:29:27;;;;;;;7.10;6.40;;;28.00;92.50;;;;;;4981195;28;20413;-79
2022/09/06 09:31:54;;;;;;;6.10;5.50;;;28.20;96.60;;;;;;4981441;28;20033;-79
2022/09/06 09:34:34;;;;;;;7.03;6.32;;;28.50;93.20;;;;;;4988522;28;20191;-79
2022/09/06 09:37:19;;;;;;;6.85;6.20;;;28.90;90.50;;;;;;4975448;28;20038;-78
2022/09/06 09:39:46;;;;;;;6.60;6.00;;;29.30;92.50;;;;;;4977570;28;20042;-78
2022/09/06 09:42:23;;;;;;;5.90;5.32;;;29.40;78.70;;;;;;4985497;28;20038;-78
2022/09/06 09:44:49;;;;;;;6.15;5.55;;;29.50;78.40;;;;;;4975221;28;20080;-78
2022/09/06 09:47:30;;;;;;;6.65;5.75;;;29.80;85.10;;;;;;4974428;28;20101;-78
2022/09/06 09:49:57;;;;;;;6.30;5.60;;;29.90;74.60;;;;;;4958572;28;20033;-78
2022/09/06 09:52:26;;;;;;;5.60;4.95;;;30.00;73.10;;;;;;4989531;28;20046;-78
2022/09/06 09:54:54;;;;;;;6.30;5.70;;;30.00;72.20;;;;;;4995681;28;20048;-78
2022/09/06 09:57:21;;;;;;;6.30;5.55;;;30.00;71.00;;;;;;4994229;28;20046;-78
2022/09/06 09:59:56;;;;;;;5.88;5.28;;;30.10;77.90;;;;;;4995841;28;20107;-76
2022/09/06 10:02:51;;;;;;;6.03;5.43;;;30.00;71.10;;;;;;4971780;28;20034;-76
2022/09/06 10:05:19;;;;;;;5.60;5.10;;;30.00;71.30;;;;;;4978576;28;20053;-75
2022/09/06 10:07:56;;;;;;;5.70;5.10;;;29.90;71.00;;;;;;4993163;28;20099;-77
2022/09/06 10:10:23;;;;;;;5.68;3.88;;;29.80;68.10;;;;;;4962305;28;20046;-75
2022/09/06 10:13:07;;;;;;;4.35;3.63;;;29.70;66.40;;;;;;4978478;28;20061;-75
2022/09/06 10:15:38;;;;;;;3.70;3.40;;;29.80;68.80;;;;;;4984904;28;20034;-77
2022/09/06 10:18:04;;;;;;;4.28;3.40;;;29.90;68.90;;;;;;4991830;28;20113;-77
2022/09/06 10:20:55;;;;;;;2.58;1.90;;;29.90;66.40;;;;;;4973947;28;20138;-77
2022/09/06 10:23:38;;;;;;;2.05;1.80;;;30.00;68.40;;;;;;4986191;28;20050;-77
2022/09/06 10:26:40;;;;;;;1.77;1.65;;;30.20;64.50;;;;;;4983317;28;20088;-77
2022/09/06 10:29:10;;;;;;;1.97;1.77;;;30.40;58.80;;;;;;4980655;28;20042;-77
2022/09/06 10:31:40;;;;;;;2.75;1.50;;;30.50;60.40;;;;;;4980105;28;20292;-77
2022/09/06 10:34:29;;;;;;;2.58;2.38;;;30.70;63.00;;;;;;4981474;28;20081;-77
2022/09/06 10:37:18;;;;;;;4.28;3.00;;;31.00;64.00;;;;;;4976824;28;20096;-77
2022/09/06 10:39:49;;;;;;;3.70;2.70;;;31.30;61.40;;;;;;4993733;28;20060;-77
2022/09/06 10:42:51;;;;;;;2.20;2.00;;;31.50;61.60;;;;;;4996418;28;20041;-78
2022/09/06 10:45:43;;;;;;;3.63;1.90;;;31.60;56.80;;;;;;4977790;28;20409;-77
2022/09/06 10:48:37;;;;;;;3.60;1.85;;;31.50;57.90;;;;;;4984148;28;20485;-77
2022/09/06 10:51:22;;;;;;;2.95;2.50;;;31.60;59.40;;;;;;4987799;28;20491;-77
2022/09/06 10:54:06;;;;;;;3.15;2.20;;;31.70;58.20;;;;;;4979734;28;20050;-77
2022/09/06 10:57:01;;;;;;;3.08;2.78;;;31.90;58.90;;;;;;4976447;28;20041;-78
2022/09/06 10:59:33;;;;;;;2.60;2.28;;;32.10;57.80;;;;;;4956020;28;20054;-80
2022/09/06 11:02:18;;;;;;;3.45;2.63;;;32.10;56.80;;;;;;4981562;28;20037;-78
2022/09/06 11:04:46;;;;;;;2.10;1.63;;;31.90;56.80;;;;;;4970605;28;20043;-78
2022/09/06 11:07:27;;;;;;;1.92;1.77;;;31.90;56.50;;;;;;4975247;28;20404;-78
2022/09/06 11:10:04;;;;;;;3.20;1.60;;;31.90;56.00;;;;;;4967494;28;20041;-78
2022/09/06 11:12:42;;;;;;;1.70;1.40;;;31.90;56.50;;;;;;4976294;28;20050;-78
2022/09/06 11:15:12;;;;;;;3.33;1.88;;;31.90;55.60;;;;;;4976314;28;20120;-78
2022/09/06 11:17:57;;;;;;;2.17;1.65;;;31.90;55.30;;;;;;4960015;28;20053;-79
2022/09/06 11:20:38;;;;;;;2.88;2.03;;;31.90;55.30;;;;;;4959405;28;20409;-78
2022/09/06 11:23:34;;;;;;;2.90;1.63;;;32.00;54.40;;;;;;4956735;28;20062;-78
2022/09/06 11:26:03;;;;;;;2.28;1.85;;;31.70;53.70;;;;;;4964090;28;20027;-78
2022/09/06 11:28:50;;;;;;;2.70;2.40;;;31.40;56.60;;;;;;4963714;28;20478;-78
2022/09/06 11:31:27;;;;;;;1.92;1.65;;;31.40;55.20;;;;;;4975866;28;20050;-78
2022/09/06 11:34:17;;;;;;;3.17;2.10;;;31.30;56.40;;;;;;4958928;28;20480;-78
2022/09/06 11:37:15;;;;;;;2.17;1.70;;;31.40;55.70;;;;;;4959578;28;20125;-78
2022/09/06 11:39:42;;;;;;;2.17;1.92;;;31.50;54.80;;;;;;4975180;28;20100;-78
2022/09/06 11:42:39;;;;;;;2.15;1.70;;;31.40;55.00;;;;;;4953437;28;20688;-78
2022/09/06 11:45:19;;;;;;;1.80;1.70;;;31.30;56.00;;;;;;4969264;28;20050;-78
2022/09/06 11:47:48;;;;;;;1.80;1.65;;;31.40;55.40;;;;;;4975346;28;20103;-78
2022/09/06 11:50:19;;;;;;;1.55;1.45;;;31.40;55.70;;;;;;4959913;28;20125;-78
2022/09/06 11:53:02;;;;;;;2.00;1.80;;;31.50;55.50;;;;;;4974815;28;20054;-78
2022/09/06 11:55:36;;;;;;;1.50;1.40;;;31.70;55.70;;;;;;4959828;28;20066;-78
2022/09/06 11:58:08;;;;;;;1.30;1.20;;;31.90;55.80;;;;;;4959162;28;20092;-78
2022/09/06 12:00:34;;;;;;;2.00;1.50;;;32.20;55.40;;;;;;4975810;28;20123;-78
2022/09/06 12:03:00;;;;;;;1.30;1.20;;;32.50;53.40;;;;;;4958509;28;20116;-78
2022/09/06 12:05:28;;;;;;;2.53;1.40;;;32.90;53.70;;;;;;4966177;28;20516;-78
2022/09/06 12:08:24;;;;;;;1.90;1.80;;;33.20;53.40;;;;;;4967255;28;20034;-78
2022/09/06 12:11:05;;;;;;;1.75;1.30;;;33.40;51.50;;;;;;4975342;28;20038;-78
2022/09/06 12:13:46;;;;;;;2.10;1.80;;;33.40;51.20;;;;;;4966173;28;20421;-78
2022/09/06 12:16:13;;;;;;;2.53;1.98;;;33.30;51.80;;;;;;4966601;28;20108;-78
2022/09/06 12:18:42;;;;;;;1.80;1.67;;;33.30;52.60;;;;;;4973882;28;20496;-77
2022/09/06 12:21:09;;;;;;;1.80;1.60;;;33.20;51.20;;;;;;4975300;28;20034;-79
2022/09/06 12:23:34;;;;;;;1.88;1.67;;;33.20;51.40;;;;;;4972000;28;20034;-78
2022/09/06 12:26:10;;;;;;;2.00;1.80;;;33.20;52.10;;;;;;4986496;28;20048;-77
2022/09/06 12:28:38;;;;;;;2.22;1.65;;;33.20;49.70;;;;;;4974973;28;20304;-77
2022/09/06 12:31:24;;;;;;;2.38;1.73;;;33.20;51.00;;;;;;4974657;28;20504;-78
2022/09/06 12:33:51;;;;;;;2.25;1.70;;;32.90;49.00;;;;;;4974246;28;20042;-78
2022/09/06 12:36:22;;;;;;;2.65;1.60;;;32.70;50.90;;;;;;4974320;28;20505;-77
2022/09/06 12:39:07;;;;;;;2.13;1.60;;;32.70;50.50;;;;;;4979839;28;20030;-77
2022/09/06 12:41:40;;;;;;;2.15;1.92;;;32.80;50.80;;;;;;4978420;28;20277;-78
2022/09/06 12:44:06;;;;;;;1.27;1.10;;;32.50;51.30;;;;;;4994205;28;20044;-77
2022/09/06 12:46:33;;;;;;;1.52;1.42;;;32.00;50.90;;;;;;4984584;28;20045;-77
2022/09/06 12:49:11;;;;;;;1.42;1.33;;;31.50;49.20;;;;;;4976324;28;20463;-77
2022/09/06 12:51:38;;;;;;;4.10;1.38;;;31.20;50.70;;;;;;4962972;28;20501;-77
2022/09/06 12:54:21;;;;;;;1.70;1.48;;;31.00;52.80;;;;;;4965031;28;20043;-77
2022/09/06 12:56:48;;;;;;;1.33;1.20;;;30.70;52.50;;;;;;4965996;28;20084;-77
2022/09/06 12:59:25;;;;;;;2.17;1.60;;;30.70;53.90;;;;;;4972236;28;20592;-78
2022/09/06 13:02:00;;;;;;;1.40;1.30;;;30.80;52.60;;;;;;4993187;28;20073;-78